Time;durP1;ratioP1;P1;durP2;ratioP2;P2;SDS_P1;SDS_P2;PMS_P1;PMS_P2;Temp;Humidity;BMP_temperature;BMP_pressure;BME280_temperature;BME280_humidity;BME280_pressure;Samples;Min_cycle;Max_cycle;Signal;HPM_P1;HPM_P2
2023/04/24 00:00:12;;;;;;;10.50;8.25;;;25.80;99.90;;;;;;5014227;23;20133;-49
2023/04/24 00:02:39;;;;;;;9.50;7.57;;;25.80;99.90;;;;;;5001805;28;20077;-47
2023/04/24 00:05:06;;;;;;;10.52;8.55;;;25.80;99.90;;;;;;5010379;28;20029;-49
2023/04/24 00:07:32;;;;;;;12.63;8.27;;;25.80;99.90;;;;;;5011531;28;20029;-49
2023/04/24 00:09:58;;;;;;;10.57;7.68;;;25.80;99.90;;;;;;5011655;28;20087;-48
2023/04/24 00:12:24;;;;;;;9.73;8.13;;;25.80;99.90;;;;;;4996934;28;20033;-48
2023/04/24 00:14:50;;;;;;;13.10;8.10;;;25.80;99.90;;;;;;4997175;28;20034;-48
2023/04/24 00:17:19;;;;;;;11.02;8.82;;;25.80;99.90;;;;;;5011657;28;20030;-49
2023/04/24 00:19:46;;;;;;;12.75;8.13;;;25.70;99.90;;;;;;5011015;28;20068;-47
2023/04/24 00:22:13;;;;;;;9.85;7.60;;;25.80;99.90;;;;;;5012534;28;20041;-48
2023/04/24 00:24:39;;;;;;;9.80;8.00;;;25.80;99.90;;;;;;5014897;28;20113;-47
2023/04/24 00:27:05;;;;;;;9.70;7.75;;;25.80;99.90;;;;;;4996968;28;20507;-48
2023/04/24 00:29:30;;;;;;;10.27;7.30;;;25.80;99.90;;;;;;5014657;28;20038;-49
2023/04/24 00:31:56;;;;;;;11.18;7.78;;;25.70;99.90;;;;;;5014986;28;20105;-49
2023/04/24 00:34:22;;;;;;;11.70;7.28;;;25.70;99.90;;;;;;5014671;28;20065;-49
2023/04/24 00:36:51;;;;;;;10.40;6.85;;;25.70;99.90;;;;;;5012644;28;20831;-48
2023/04/24 00:39:18;;;;;;;8.93;7.32;;;25.70;99.90;;;;;;5016109;28;20018;-48
2023/04/24 00:41:45;;;;;;;8.43;6.55;;;25.70;99.90;;;;;;5026233;28;20083;-48
2023/04/24 00:44:11;;;;;;;8.38;6.47;;;25.70;99.90;;;;;;5027574;28;20471;-47
2023/04/24 00:46:37;;;;;;;9.82;7.55;;;25.70;99.90;;;;;;5032386;28;20033;-47
2023/04/24 00:49:04;;;;;;;9.65;7.57;;;25.70;99.90;;;;;;5034065;28;20057;-46
2023/04/24 00:51:32;;;;;;;8.25;6.63;;;25.70;99.90;;;;;;5034140;28;20021;-46
2023/04/24 00:53:58;;;;;;;10.35;7.35;;;25.60;99.90;;;;;;5033569;28;20033;-48
2023/04/24 00:56:25;;;;;;;11.10;6.45;;;25.70;99.90;;;;;;5034410;28;20021;-48
2023/04/24 00:58:51;;;;;;;7.43;6.63;;;25.60;99.90;;;;;;5034415;28;20021;-47
2023/04/24 01:01:21;;;;;;;7.35;6.05;;;25.60;99.90;;;;;;5016989;28;20056;-48
2023/04/24 01:03:47;;;;;;;9.88;6.55;;;25.60;99.90;;;;;;5016445;28;20133;-45
2023/04/24 01:06:13;;;;;;;12.10;7.45;;;25.60;99.90;;;;;;5032999;28;20145;-47
2023/04/24 01:08:40;;;;;;;9.88;6.32;;;25.60;99.90;;;;;;5017902;28;20049;-47
2023/04/24 01:11:06;;;;;;;8.52;6.55;;;25.60;99.90;;;;;;5001016;28;20030;-47
2023/04/24 01:13:33;;;;;;;8.43;5.95;;;25.50;99.90;;;;;;5003885;28;20034;-46
2023/04/24 01:16:00;;;;;;;8.57;6.40;;;25.60;99.90;;;;;;5008870;28;20026;-47
2023/04/24 01:18:26;;;;;;;8.60;6.30;;;25.50;99.90;;;;;;5007948;28;20045;-47
2023/04/24 01:20:56;;;;;;;7.28;5.80;;;25.50;99.90;;;;;;5013848;28;20025;-48
2023/04/24 01:23:22;;;;;;;7.95;6.10;;;25.50;99.90;;;;;;5014192;28;20080;-47
2023/04/24 01:25:49;;;;;;;10.85;6.13;;;25.50;99.90;;;;;;5012733;28;20037;-47
2023/04/24 01:28:16;;;;;;;8.25;6.20;;;25.50;99.90;;;;;;5012717;28;20030;-47
2023/04/24 01:30:42;;;;;;;7.82;5.95;;;25.40;99.90;;;;;;5013972;28;20080;-47
2023/04/24 01:33:08;;;;;;;10.10;5.35;;;25.40;99.90;;;;;;5014039;28;20091;-47
2023/04/24 01:35:35;;;;;;;8.73;6.95;;;25.40;99.90;;;;;;5010978;28;20455;-47
2023/04/24 01:38:02;;;;;;;7.97;5.68;;;25.40;99.90;;;;;;5013313;28;20369;-47
2023/04/24 01:40:27;;;;;;;7.85;6.13;;;25.40;99.90;;;;;;5011384;28;20289;-47
2023/04/24 01:42:54;;;;;;;7.43;5.82;;;25.40;99.90;;;;;;5013794;28;20065;-47
2023/04/24 01:45:19;;;;;;;9.13;6.15;;;25.40;99.90;;;;;;5010925;28;20034;-47
2023/04/24 01:47:46;;;;;;;9.60;5.78;;;25.40;99.90;;;;;;5013489;28;20030;-47
2023/04/24 01:50:12;;;;;;;10.73;5.70;;;25.40;99.90;;;;;;5013388;28;20115;-47
2023/04/24 01:52:37;;;;;;;7.60;5.80;;;25.40;99.90;;;;;;5010617;28;20643;-47
2023/04/24 01:55:04;;;;;;;6.60;4.78;;;25.30;99.90;;;;;;4992818;28;20049;-47
2023/04/24 01:57:31;;;;;;;7.47;5.55;;;25.30;99.90;;;;;;4994111;28;20113;-48
2023/04/24 01:59:57;;;;;;;7.53;5.50;;;25.30;99.90;;;;;;4994485;28;20117;-47
2023/04/24 02:02:29;;;;;;;9.20;5.88;;;25.30;99.90;;;;;;5002078;28;20124;-47
2023/04/24 02:04:56;;;;;;;6.78;5.40;;;25.30;99.90;;;;;;5012931;28;20072;-47
2023/04/24 02:07:22;;;;;;;8.35;6.05;;;25.30;99.90;;;;;;5012657;28;20362;-47
2023/04/24 02:09:48;;;;;;;6.45;5.30;;;25.30;99.90;;;;;;5012290;28;20077;-47
2023/04/24 02:12:17;;;;;;;8.45;5.85;;;25.30;99.90;;;;;;5010423;28;20033;-47
2023/04/24 02:14:43;;;;;;;8.23;5.13;;;25.30;99.90;;;;;;5012723;28;20026;-47
2023/04/24 02:17:12;;;;;;;8.18;5.70;;;25.30;99.90;;;;;;5013191;28;20052;-48
2023/04/24 02:19:38;;;;;;;7.95;5.53;;;25.30;99.90;;;;;;5011788;28;20022;-48
2023/04/24 02:22:04;;;;;;;6.85;5.30;;;25.30;99.90;;;;;;5011667;28;20022;-47
2023/04/24 02:24:30;;;;;;;6.70;5.38;;;25.20;99.90;;;;;;5013572;28;20080;-47
2023/04/24 02:26:55;;;;;;;9.75;5.85;;;25.20;99.90;;;;;;5013148;28;20028;-47
2023/04/24 02:29:21;;;;;;;8.88;5.70;;;25.20;99.90;;;;;;5012732;28;20080;-47
2023/04/24 02:31:47;;;;;;;7.25;5.68;;;25.20;99.90;;;;;;5011884;28;20030;-47
2023/04/24 02:34:12;;;;;;;7.30;5.75;;;25.20;99.90;;;;;;5013063;28;20030;-47
2023/04/24 02:36:38;;;;;;;9.48;5.38;;;25.20;99.90;;;;;;5013021;28;20037;-47
2023/04/24 02:39:04;;;;;;;7.53;5.55;;;25.20;99.90;;;;;;5008971;28;20112;-47
2023/04/24 02:41:31;;;;;;;6.47;5.32;;;25.20;99.90;;;;;;5012238;28;20100;-47
2023/04/24 02:43:58;;;;;;;7.97;5.22;;;25.10;99.90;;;;;;5011665;28;20026;-47
2023/04/24 02:46:24;;;;;;;8.85;5.43;;;25.10;99.90;;;;;;5011661;28;20107;-47
2023/04/24 02:48:50;;;;;;;7.13;5.22;;;25.10;99.90;;;;;;5009805;28;20049;-47
2023/04/24 02:51:16;;;;;;;6.97;5.30;;;25.10;99.90;;;;;;5012687;28;20022;-47
2023/04/24 02:53:41;;;;;;;7.88;6.03;;;25.10;99.90;;;;;;5012621;28;20022;-47
2023/04/24 02:56:07;;;;;;;7.85;6.10;;;25.10;99.90;;;;;;5010950;28;20041;-47
2023/04/24 02:58:33;;;;;;;7.25;5.40;;;25.10;99.90;;;;;;4993966;28;20068;-47
2023/04/24 03:01:00;;;;;;;11.15;6.10;;;25.10;99.90;;;;;;5028220;22;20061;-60
2023/04/24 03:03:26;;;;;;;8.07;6.13;;;25.10;99.90;;;;;;5012954;28;20514;-61
2023/04/24 03:05:51;;;;;;;6.97;5.28;;;25.10;99.90;;;;;;5012616;28;20076;-60
2023/04/24 03:08:17;;;;;;;9.43;5.50;;;25.00;99.90;;;;;;5012653;28;20026;-60
2023/04/24 03:10:43;;;;;;;13.32;5.72;;;25.00;99.90;;;;;;5012548;28;20388;-59
2023/04/24 03:13:09;;;;;;;8.65;5.07;;;25.10;99.90;;;;;;5012492;28;20029;-60
2023/04/24 03:15:35;;;;;;;10.00;4.93;;;25.00;99.90;;;;;;5012373;28;20030;-61
2023/04/24 03:18:02;;;;;;;8.88;5.65;;;25.00;99.90;;;;;;4994800;28;20022;-61
2023/04/24 03:20:28;;;;;;;7.93;5.53;;;25.00;99.90;;;;;;5012414;28;20018;-61
2023/04/24 03:22:54;;;;;;;8.02;4.82;;;25.00;99.90;;;;;;5011581;28;20041;-59
2023/04/24 03:25:20;;;;;;;6.18;5.40;;;25.00;99.90;;;;;;5012738;28;20014;-60
2023/04/24 03:27:46;;;;;;;8.48;5.60;;;25.00;99.90;;;;;;5013494;28;20046;-59
2023/04/24 03:30:12;;;;;;;6.88;4.53;;;25.00;99.90;;;;;;5022161;28;20021;-59
2023/04/24 03:32:39;;;;;;;5.95;4.25;;;25.00;99.90;;;;;;5019339;28;20025;-60
2023/04/24 03:35:08;;;;;;;7.53;5.22;;;25.00;99.90;;;;;;5010888;28;20098;-60
2023/04/24 03:37:34;;;;;;;7.97;4.90;;;25.00;99.90;;;;;;5011995;28;20030;-60
2023/04/24 03:40:00;;;;;;;14.88;5.03;;;25.00;99.90;;;;;;5012241;28;20076;-60
2023/04/24 03:42:26;;;;;;;6.75;4.30;;;25.00;99.90;;;;;;5012121;28;20067;-60
2023/04/24 03:44:52;;;;;;;5.32;3.92;;;24.90;99.90;;;;;;5012732;28;20029;-60
2023/04/24 03:47:18;;;;;;;8.70;4.25;;;24.90;99.90;;;;;;5012165;28;20438;-61
2023/04/24 03:49:43;;;;;;;6.35;4.18;;;24.90;99.90;;;;;;5012132;28;20516;-60
2023/04/24 03:52:09;;;;;;;6.00;3.97;;;24.90;99.90;;;;;;5012102;28;20038;-60
2023/04/24 03:54:35;;;;;;;5.90;4.30;;;24.90;99.90;;;;;;5012227;28;20054;-60
2023/04/24 03:57:01;;;;;;;6.10;4.75;;;24.90;99.90;;;;;;4995084;28;20034;-60
2023/04/24 03:59:27;;;;;;;5.88;4.00;;;24.90;99.90;;;;;;5015666;28;20025;-60
2023/04/24 04:01:52;;;;;;;5.32;4.18;;;24.90;99.90;;;;;;4998307;28;20034;-61
2023/04/24 04:04:18;;;;;;;7.15;4.65;;;24.90;99.90;;;;;;5015681;28;20484;-60
2023/04/24 04:06:44;;;;;;;5.43;4.20;;;24.90;99.90;;;;;;5015643;28;20045;-61
2023/04/24 04:09:10;;;;;;;6.05;4.05;;;24.90;99.90;;;;;;5015673;28;20037;-59
2023/04/24 04:11:36;;;;;;;6.00;4.25;;;24.90;99.90;;;;;;4997888;28;20029;-60
2023/04/24 04:14:02;;;;;;;8.27;3.88;;;24.90;99.90;;;;;;5015562;28;20033;-60
2023/04/24 04:16:28;;;;;;;6.88;4.70;;;24.90;99.90;;;;;;5015771;28;20387;-60
2023/04/24 04:18:55;;;;;;;6.57;3.95;;;24.80;99.90;;;;;;5015531;28;20018;-60
2023/04/24 04:21:21;;;;;;;5.60;3.83;;;24.80;99.90;;;;;;4997837;28;20030;-60
2023/04/24 04:23:46;;;;;;;7.57;4.63;;;24.80;99.90;;;;;;5015764;28;20053;-61
2023/04/24 04:26:12;;;;;;;5.30;3.80;;;24.80;99.90;;;;;;5015284;28;20022;-61
2023/04/24 04:28:39;;;;;;;4.38;3.58;;;24.80;99.90;;;;;;5015223;28;20036;-60
2023/04/24 04:31:05;;;;;;;3.72;3.22;;;24.80;99.90;;;;;;5015419;28;20388;-60
2023/04/24 04:33:31;;;;;;;8.00;3.90;;;24.80;99.90;;;;;;5015186;28;20044;-60
2023/04/24 04:35:57;;;;;;;5.18;3.70;;;24.80;99.90;;;;;;5015386;28;20022;-61
2023/04/24 04:38:23;;;;;;;4.90;3.40;;;24.80;99.90;;;;;;5015124;28;20054;-61
2023/04/24 04:40:49;;;;;;;4.47;3.47;;;24.70;99.90;;;;;;5015026;28;20057;-61
2023/04/24 04:43:15;;;;;;;6.88;3.85;;;24.80;99.90;;;;;;5014945;28;20033;-62
2023/04/24 04:45:43;;;;;;;6.85;3.67;;;24.80;99.90;;;;;;5015042;28;20033;-60
2023/04/24 04:48:12;;;;;;;5.80;3.35;;;24.70;99.90;;;;;;5014968;28;20018;-60
2023/04/24 04:50:38;;;;;;;7.28;3.28;;;24.70;99.90;;;;;;5014814;28;20080;-59
2023/04/24 04:53:05;;;;;;;5.22;3.55;;;24.80;99.90;;;;;;5014733;28;20022;-59
2023/04/24 04:55:30;;;;;;;4.47;3.30;;;24.70;99.90;;;;;;5014998;28;20430;-60
2023/04/24 04:57:57;;;;;;;5.68;3.15;;;24.70;99.90;;;;;;5014883;28;20259;-59
2023/04/24 05:00:25;;;;;;;5.00;3.58;;;24.70;99.90;;;;;;5014537;28;20073;-59
2023/04/24 05:02:51;;;;;;;4.30;2.85;;;24.70;99.90;;;;;;4995138;28;20038;-61
2023/04/24 05:05:17;;;;;;;4.68;3.50;;;24.70;99.90;;;;;;5014552;28;20385;-61
2023/04/24 05:07:44;;;;;;;4.03;3.45;;;24.70;99.90;;;;;;5014504;28;20025;-61
2023/04/24 05:10:10;;;;;;;5.22;3.10;;;24.70;99.90;;;;;;5013451;28;20034;-61
2023/04/24 05:12:36;;;;;;;6.88;3.50;;;24.70;99.90;;;;;;5014581;28;20529;-61
2023/04/24 05:15:02;;;;;;;4.50;2.97;;;24.60;99.90;;;;;;4997180;28;20043;-60
2023/04/24 05:17:28;;;;;;;8.88;3.65;;;24.60;99.90;;;;;;4997014;28;20030;-61
2023/04/24 05:19:54;;;;;;;3.78;3.10;;;24.60;99.90;;;;;;5014462;28;20421;-61
2023/04/24 05:22:21;;;;;;;4.18;3.17;;;24.60;99.90;;;;;;5014134;28;20049;-59
2023/04/24 05:24:47;;;;;;;5.63;3.72;;;24.70;99.90;;;;;;5014129;28;20026;-59
2023/04/24 05:27:13;;;;;;;6.13;3.50;;;24.60;99.90;;;;;;5014244;28;20029;-59
2023/04/24 05:29:39;;;;;;;4.43;2.88;;;24.60;99.90;;;;;;5013187;28;20029;-59
2023/04/24 05:32:05;;;;;;;5.80;3.20;;;24.60;99.90;;;;;;5014133;28;20026;-59
2023/04/24 05:34:31;;;;;;;4.30;2.97;;;24.60;99.90;;;;;;5014232;28;20431;-58
2023/04/24 05:36:57;;;;;;;4.63;2.55;;;24.60;99.90;;;;;;5014033;28;20025;-59
2023/04/24 05:39:24;;;;;;;6.45;3.15;;;24.50;99.90;;;;;;5014007;28;20400;-58
2023/04/24 05:41:51;;;;;;;4.63;3.05;;;24.60;99.90;;;;;;5013951;28;20112;-57
2023/04/24 05:44:16;;;;;;;4.93;2.97;;;24.60;99.90;;;;;;5013957;28;20037;-58
2023/04/24 05:46:42;;;;;;;4.13;2.60;;;24.60;99.90;;;;;;5013769;28;20018;-58
2023/04/24 05:49:08;;;;;;;5.88;2.88;;;24.60;99.90;;;;;;5013773;28;20145;-58
2023/04/24 05:51:34;;;;;;;4.50;2.42;;;24.50;99.90;;;;;;5013888;28;20033;-58
2023/04/24 05:54:01;;;;;;;4.95;2.75;;;24.50;99.90;;;;;;5013764;28;20041;-58
2023/04/24 05:56:26;;;;;;;3.63;3.03;;;24.50;99.90;;;;;;5013621;28;20503;-59
2023/04/24 05:58:52;;;;;;;6.70;3.08;;;24.50;99.90;;;;;;5013604;28;20045;-58
2023/04/24 06:01:19;;;;;;;5.40;3.25;;;24.50;99.90;;;;;;5013319;28;20116;-58
2023/04/24 06:03:45;;;;;;;3.83;2.35;;;24.50;99.90;;;;;;5013549;28;20040;-60
2023/04/24 06:06:11;;;;;;;4.65;3.28;;;24.50;99.90;;;;;;5014019;28;20713;-58
2023/04/24 06:08:36;;;;;;;4.57;3.35;;;24.50;99.90;;;;;;5013665;28;20484;-59
2023/04/24 06:11:02;;;;;;;6.90;3.05;;;24.50;99.90;;;;;;5026497;28;20018;-58
2023/04/24 06:13:28;;;;;;;4.50;3.03;;;24.50;99.90;;;;;;5022335;28;20026;-58
2023/04/24 06:15:54;;;;;;;3.38;2.58;;;24.50;99.90;;;;;;5032319;28;20037;-58
2023/04/24 06:18:20;;;;;;;8.68;3.33;;;24.50;99.90;;;;;;5032062;28;20084;-60
2023/04/24 06:20:47;;;;;;;6.25;3.22;;;24.50;99.90;;;;;;5016759;28;20128;-59
2023/04/24 06:23:13;;;;;;;;;;;24.50;99.90;;;;;;5011825;28;20125;-59
2023/04/24 06:25:39;;;;;;;3.35;2.40;;;24.50;99.90;;;;;;5012367;28;20009;-60
2023/04/24 06:28:05;;;;;;;3.20;2.80;;;24.50;99.90;;;;;;5011944;28;20095;-61
2023/04/24 06:30:31;;;;;;;4.78;2.92;;;24.50;99.90;;;;;;4994957;28;20476;-60
2023/04/24 06:32:57;;;;;;;3.58;2.70;;;24.40;99.90;;;;;;5011908;28;20026;-59
2023/04/24 06:35:23;;;;;;;5.60;2.85;;;24.40;99.90;;;;;;5011592;28;20032;-62
2023/04/24 06:37:49;;;;;;;4.13;2.78;;;24.40;99.90;;;;;;5011804;28;20122;-60
2023/04/24 06:40:14;;;;;;;4.85;2.90;;;24.40;99.90;;;;;;5011633;28;20025;-60
2023/04/24 06:42:40;;;;;;;7.18;2.55;;;24.40;99.90;;;;;;5011916;28;20041;-60
2023/04/24 06:45:06;;;;;;;5.07;3.00;;;24.40;99.90;;;;;;5001413;28;20077;-60
2023/04/24 06:47:32;;;;;;;4.40;2.70;;;24.40;99.90;;;;;;5003143;28;20026;-60
2023/04/24 06:49:58;;;;;;;4.68;2.70;;;24.40;99.90;;;;;;4991550;28;20445;-60
2023/04/24 06:52:27;;;;;;;5.25;2.67;;;24.40;99.90;;;;;;4994042;28;20062;-60
2023/04/24 06:54:59;;;;;;;7.10;3.05;;;24.40;99.90;;;;;;5011169;28;20084;-61
2023/04/24 06:57:25;;;;;;;5.80;2.50;;;24.40;99.90;;;;;;5009048;28;20468;-62
2023/04/24 06:59:50;;;;;;;9.13;2.75;;;24.40;99.90;;;;;;5009327;28;20044;-62
2023/04/24 07:02:16;;;;;;;4.25;2.53;;;24.40;99.90;;;;;;5010322;28;20107;-61
2023/04/24 07:04:42;;;;;;;5.47;2.65;;;24.40;99.90;;;;;;5010522;28;20365;-60
2023/04/24 07:07:09;;;;;;;5.53;3.28;;;24.40;99.90;;;;;;5007738;28;20045;-60
2023/04/24 07:09:38;;;;;;;7.22;2.75;;;24.40;99.90;;;;;;5008162;28;20085;-61
2023/04/24 07:12:04;;;;;;;4.40;2.70;;;24.40;99.90;;;;;;5012636;28;20030;-60
2023/04/24 07:14:30;;;;;;;7.03;2.83;;;24.40;99.90;;;;;;5012322;28;20028;-60
2023/04/24 07:16:56;;;;;;;4.97;2.50;;;24.40;99.90;;;;;;4994640;28;20440;-60
2023/04/24 07:19:22;;;;;;;3.83;2.85;;;24.40;99.90;;;;;;5012290;28;20029;-60
2023/04/24 07:21:48;;;;;;;4.78;2.63;;;24.50;99.90;;;;;;5012246;28;20415;-60
2023/04/24 07:24:14;;;;;;;4.38;2.60;;;24.50;99.90;;;;;;5011905;28;20088;-60
2023/04/24 07:26:40;;;;;;;4.78;2.85;;;24.50;99.90;;;;;;4993813;28;20030;-61
2023/04/24 07:29:06;;;;;;;4.68;2.78;;;24.50;99.90;;;;;;4997958;28;20457;-62
2023/04/24 07:31:31;;;;;;;4.82;2.70;;;24.50;99.90;;;;;;4992555;28;20380;-62
2023/04/24 07:34:00;;;;;;;12.23;3.42;;;24.50;99.90;;;;;;4996650;28;20030;-62
2023/04/24 07:36:26;;;;;;;6.82;2.95;;;24.50;99.90;;;;;;4996640;28;20397;-61
2023/04/24 07:38:52;;;;;;;4.68;3.13;;;24.50;99.90;;;;;;5002004;28;20037;-62
2023/04/24 07:41:18;;;;;;;5.55;2.45;;;24.50;99.90;;;;;;5006273;28;20022;-62
2023/04/24 07:43:44;;;;;;;5.10;2.42;;;24.50;99.90;;;;;;4988760;28;20065;-61
2023/04/24 07:46:10;;;;;;;7.82;2.78;;;24.50;99.90;;;;;;4997659;28;20018;-60
2023/04/24 07:48:36;;;;;;;5.40;3.25;;;24.50;99.90;;;;;;5005314;28;20014;-62
2023/04/24 07:51:02;;;;;;;9.30;3.55;;;24.50;99.90;;;;;;5005500;28;20014;-63
2023/04/24 07:53:28;;;;;;;7.28;2.97;;;24.50;99.90;;;;;;5006532;28;20018;-63
2023/04/24 07:55:55;;;;;;;6.90;3.20;;;24.50;99.90;;;;;;5006663;28;20378;-64
2023/04/24 07:58:21;;;;;;;8.70;3.40;;;24.50;99.90;;;;;;5008449;28;20028;-61
2023/04/24 08:00:47;;;;;;;7.03;3.53;;;24.50;99.90;;;;;;5001853;28;20042;-59
2023/04/24 08:03:13;;;;;;;7.80;3.53;;;24.50;99.90;;;;;;5001910;28;20034;-60
2023/04/24 08:05:39;;;;;;;11.70;3.60;;;24.60;99.90;;;;;;5002255;28;20433;-58
2023/04/24 08:08:05;;;;;;;8.38;3.17;;;24.60;99.90;;;;;;4995713;28;20030;-57
2023/04/24 08:10:30;;;;;;;5.90;4.13;;;24.60;99.90;;;;;;4995171;28;20582;-57
2023/04/24 08:12:56;;;;;;;6.28;3.58;;;24.60;99.90;;;;;;5009726;28;20026;-58
2023/04/24 08:15:22;;;;;;;9.23;4.05;;;24.60;99.90;;;;;;5011855;28;20502;-56
2023/04/24 08:17:48;;;;;;;7.90;4.97;;;24.60;99.90;;;;;;5003677;28;20109;-57
2023/04/24 08:20:14;;;;;;;8.00;3.78;;;24.60;99.90;;;;;;4997903;28;20066;-57
2023/04/24 08:22:43;;;;;;;7.35;4.20;;;24.60;99.90;;;;;;5005965;28;20042;-57
2023/04/24 08:25:10;;;;;;;9.25;4.82;;;24.60;99.90;;;;;;4995295;28;20018;-57
2023/04/24 08:27:36;;;;;;;7.93;4.57;;;24.60;99.90;;;;;;4995379;28;20022;-56
2023/04/24 08:30:04;;;;;;;7.95;4.57;;;24.70;99.90;;;;;;4997257;28;20042;-56
2023/04/24 08:32:30;;;;;;;8.52;5.00;;;24.70;99.90;;;;;;5010823;28;20041;-57
2023/04/24 08:34:56;;;;;;;8.00;5.18;;;24.70;99.90;;;;;;4996663;28;20026;-58
2023/04/24 08:37:23;;;;;;;9.37;4.93;;;24.70;99.90;;;;;;5005671;28;20507;-58
2023/04/24 08:39:50;;;;;;;11.63;5.80;;;24.70;99.90;;;;;;4999586;28;20388;-57
2023/04/24 08:42:17;;;;;;;8.05;4.93;;;24.70;99.90;;;;;;4994294;28;20484;-59
2023/04/24 08:44:43;;;;;;;;;;;24.70;99.90;;;;;;4995115;28;20030;-59
2023/04/24 08:47:10;;;;;;;9.25;4.95;;;24.70;99.90;;;;;;5014919;28;19914;-59
2023/04/24 08:49:37;;;;;;;7.50;5.07;;;24.70;99.90;;;;;;5015141;28;20036;-59
2023/04/24 08:52:04;;;;;;;10.70;6.07;;;24.70;99.90;;;;;;5014855;28;20037;-59
2023/04/24 08:54:31;;;;;;;10.40;4.70;;;24.70;99.90;;;;;;5014806;28;20026;-61
2023/04/24 08:57:03;;;;;;;9.73;5.47;;;24.70;99.90;;;;;;5014764;28;20033;-59
2023/04/24 08:59:33;;;;;;;10.25;5.45;;;24.70;99.90;;;;;;5014542;28;20029;-59
2023/04/24 09:01:59;;;;;;;9.32;5.00;;;24.70;99.90;;;;;;5014537;28;20088;-59
2023/04/24 09:04:27;;;;;;;9.15;6.00;;;24.70;99.90;;;;;;5014446;28;20109;-59
2023/04/24 09:06:57;;;;;;;;;;;24.80;99.90;;;;;;5014935;28;20420;-59
2023/04/24 09:09:24;;;;;;;13.70;6.40;;;24.70;99.90;;;;;;5014499;28;19905;-59
2023/04/24 09:11:53;;;;;;;9.98;6.43;;;24.80;99.90;;;;;;5014388;28;20029;-60
2023/04/24 09:14:20;;;;;;;14.35;6.40;;;24.80;99.90;;;;;;5014459;28;20030;-59
2023/04/24 09:16:46;;;;;;;10.65;6.75;;;24.80;99.90;;;;;;5014413;28;20018;-62
2023/04/24 09:19:12;;;;;;;11.48;6.10;;;24.70;99.90;;;;;;5014319;28;20160;-59
2023/04/24 09:21:38;;;;;;;13.18;6.85;;;24.80;99.90;;;;;;5014508;28;20050;-59
2023/04/24 09:24:14;;;;;;;10.93;6.53;;;24.80;99.90;;;;;;5014136;28;20111;-60
2023/04/24 09:26:40;;;;;;;10.38;6.82;;;24.80;99.90;;;;;;5014262;28;20392;-59
2023/04/24 09:29:06;;;;;;;12.05;7.95;;;24.80;99.90;;;;;;5014150;28;20030;-60
2023/04/24 09:31:32;;;;;;;12.13;7.10;;;24.80;99.90;;;;;;4996404;28;20520;-59
2023/04/24 09:34:05;;;;;;;11.43;7.00;;;24.80;99.90;;;;;;5014116;28;20026;-59
2023/04/24 09:36:40;;;;;;;10.18;6.82;;;24.80;99.90;;;;;;5013803;28;20037;-59
2023/04/24 09:39:09;;;;;;;14.85;6.57;;;24.80;99.90;;;;;;5013903;28;20503;-60
2023/04/24 09:41:46;;;;;;;10.82;6.32;;;24.80;99.90;;;;;;5013906;28;20167;-59
2023/04/24 09:44:22;;;;;;;11.98;6.72;;;24.80;99.90;;;;;;5014118;28;20060;-60
2023/04/24 09:47:02;;;;;;;11.68;6.95;;;24.80;99.90;;;;;;4996016;28;20487;-59
2023/04/24 09:49:29;;;;;;;12.07;6.28;;;24.80;99.90;;;;;;5013477;28;20463;-58
2023/04/24 09:52:09;;;;;;;10.68;6.15;;;24.80;99.90;;;;;;5014546;28;20494;-59
2023/04/24 09:54:38;;;;;;;10.50;5.75;;;24.80;99.90;;;;;;5022330;28;20083;-59
2023/04/24 09:57:04;;;;;;;7.07;5.25;;;24.80;99.90;;;;;;5019559;28;20021;-60
2023/04/24 09:59:30;;;;;;;9.90;5.18;;;24.90;99.90;;;;;;5032932;28;20383;-59
2023/04/24 10:01:58;;;;;;;10.10;5.47;;;24.90;99.90;;;;;;5016983;28;20502;-59
2023/04/24 10:04:26;;;;;;;8.30;5.45;;;24.90;99.90;;;;;;5012012;28;20079;-58
2023/04/24 10:06:56;;;;;;;7.63;4.70;;;24.90;99.90;;;;;;5012591;28;20022;-58
2023/04/24 10:09:25;;;;;;;7.28;4.32;;;24.90;99.90;;;;;;5012141;28;20037;-59
2023/04/24 10:11:53;;;;;;;7.05;3.97;;;24.90;99.90;;;;;;4995156;28;20022;-58
2023/04/24 10:14:21;;;;;;;8.43;5.07;;;24.90;99.90;;;;;;5011995;28;20038;-59
2023/04/24 10:16:47;;;;;;;7.75;4.50;;;24.90;99.90;;;;;;4994791;28;20028;-59
2023/04/24 10:19:14;;;;;;;5.38;3.65;;;25.00;99.90;;;;;;5012407;28;20158;-59
2023/04/24 10:21:42;;;;;;;8.25;4.30;;;25.00;99.90;;;;;;5012355;28;20018;-59
2023/04/24 10:24:08;;;;;;;;;;;25.00;99.90;;;;;;5012441;28;20030;-58
2023/04/24 10:26:35;;;;;;;8.02;3.80;;;25.00;99.90;;;;;;5011902;28;19936;-58
2023/04/24 10:29:01;;;;;;;5.40;3.80;;;25.00;99.90;;;;;;5009760;28;20052;-58
2023/04/24 10:31:31;;;;;;;5.60;3.47;;;25.00;99.90;;;;;;5008769;28;20018;-59
2023/04/24 10:33:59;;;;;;;5.93;3.70;;;25.00;99.90;;;;;;4994024;28;20021;-60
2023/04/24 10:36:27;;;;;;;5.43;3.38;;;25.00;99.90;;;;;;5011314;28;20022;-59
2023/04/24 10:38:56;;;;;;;9.13;3.13;;;25.00;99.90;;;;;;4995168;28;20329;-56
2023/04/24 10:41:25;;;;;;;5.85;3.53;;;25.00;99.90;;;;;;5012734;28;20156;-57
2023/04/24 10:44:11;;;;;;;5.68;3.45;;;25.00;99.90;;;;;;5012839;28;20036;-59
2023/04/24 10:46:39;;;;;;;5.67;3.10;;;25.00;99.90;;;;;;5012742;28;20502;-60
2023/04/24 10:49:08;;;;;;;7.38;3.67;;;25.10;99.90;;;;;;5012809;28;20029;-58
2023/04/24 10:52:08;;;;;;;6.65;3.25;;;25.00;99.90;;;;;;4994439;28;20032;-58
2023/04/24 10:54:42;;;;;;;5.75;3.28;;;25.10;99.90;;;;;;4970139;28;20033;-58
2023/04/24 10:57:20;;;;;;;5.57;2.97;;;25.10;99.90;;;;;;4995137;28;20392;-59
2023/04/24 10:59:47;;;;;;;8.20;4.07;;;25.10;99.90;;;;;;5012456;28;20049;-58
2023/04/24 11:02:17;;;;;;;8.02;4.70;;;25.10;99.90;;;;;;5012539;28;20025;-59
2023/04/24 11:04:44;;;;;;;10.88;4.35;;;25.10;99.90;;;;;;5012750;28;20034;-62
2023/04/24 11:07:11;;;;;;;5.55;2.95;;;25.10;99.90;;;;;;5011829;28;20152;-58
2023/04/24 11:09:40;;;;;;;8.35;2.05;;;25.20;99.90;;;;;;5012524;28;20030;-60
2023/04/24 11:12:10;;;;;;;5.82;2.17;;;25.20;99.90;;;;;;4995264;28;20058;-59
2023/04/24 11:14:55;;;;;;;3.50;1.45;;;25.20;99.90;;;;;;5012343;28;20037;-59
2023/04/24 11:17:37;;;;;;;5.05;2.33;;;25.20;99.90;;;;;;5008134;28;20507;-60
2023/04/24 11:20:11;;;;;;;5.93;1.20;;;25.30;99.90;;;;;;5007651;28;20475;-61
2023/04/24 11:22:42;;;;;;;4.00;1.33;;;25.30;99.90;;;;;;5031378;28;20112;-59
2023/04/24 11:25:09;;;;;;;6.68;2.03;;;25.30;99.90;;;;;;5016928;28;20029;-61
2023/04/24 11:27:43;;;;;;;4.68;1.65;;;25.30;99.90;;;;;;5019347;28;20037;-60
2023/04/24 11:30:10;;;;;;;2.90;1.17;;;25.30;99.90;;;;;;5002244;28;20104;-60
2023/04/24 11:32:38;;;;;;;3.30;1.30;;;25.30;99.90;;;;;;5013757;28;20025;-60
2023/04/24 11:35:21;;;;;;;3.85;1.30;;;25.30;99.90;;;;;;5031310;28;20036;-61
2023/04/24 11:37:49;;;;;;;6.35;1.65;;;25.30;99.90;;;;;;5031621;28;20060;-60
2023/04/24 11:40:17;;;;;;;7.40;2.22;;;25.40;99.90;;;;;;5014215;28;20430;-60
2023/04/24 11:42:44;;;;;;;4.45;1.40;;;25.30;99.90;;;;;;5031909;28;20068;-61
2023/04/24 11:45:21;;;;;;;;;;;25.40;99.90;;;;;;5031724;28;20056;-60
2023/04/24 11:47:47;;;;;;;6.55;1.55;;;25.40;99.90;;;;;;5031426;28;19912;-60
2023/04/24 11:50:15;;;;;;;4.30;1.15;;;25.40;99.90;;;;;;5018009;28;20038;-55
2023/04/24 11:52:49;;;;;;;5.15;2.03;;;25.40;99.90;;;;;;5005225;28;20026;-59
2023/04/24 11:55:15;;;;;;;8.05;1.70;;;25.40;99.90;;;;;;5024967;28;20022;-59
2023/04/24 11:57:46;;;;;;;5.65;2.70;;;25.40;99.90;;;;;;4994228;28;20076;-58
2023/04/24 12:00:20;;;;;;;37.25;14.02;;;25.50;99.90;;;;;;5024153;28;20045;-60
2023/04/24 12:02:47;;;;;;;42.05;16.80;;;25.50;99.90;;;;;;5019088;28;20059;-61
2023/04/24 12:05:24;;;;;;;37.70;12.13;;;25.50;99.90;;;;;;5031080;28;20601;-60
2023/04/24 12:07:49;;;;;;;15.73;6.20;;;25.50;99.90;;;;;;5012253;28;20491;-62
2023/04/24 12:10:25;;;;;;;7.82;3.15;;;25.50;99.90;;;;;;5031627;28;20075;-59
2023/04/24 12:12:51;;;;;;;8.05;3.22;;;25.50;99.90;;;;;;5011578;28;20021;-59
2023/04/24 12:15:20;;;;;;;4.45;1.90;;;25.50;99.90;;;;;;5011419;28;20026;-59
2023/04/24 12:17:47;;;;;;;3.35;1.95;;;25.50;99.90;;;;;;5013349;28;20036;-62
2023/04/24 12:20:13;;;;;;;4.88;1.85;;;25.50;99.90;;;;;;5035106;28;20146;-61
2023/04/24 12:22:47;;;;;;;3.75;1.63;;;25.50;99.90;;;;;;5034625;28;20049;-61
2023/04/24 12:25:17;;;;;;;2.60;1.48;;;25.50;99.90;;;;;;5035007;28;20022;-61
2023/04/24 12:27:52;;;;;;;4.15;1.15;;;25.60;99.90;;;;;;5034811;28;20491;-61
2023/04/24 12:30:18;;;;;;;4.50;1.50;;;25.60;99.90;;;;;;5006731;28;20030;-58
2023/04/24 12:32:48;;;;;;;5.55;1.92;;;25.60;99.90;;;;;;5032999;28;20021;-57
2023/04/24 12:35:20;;;;;;;5.10;1.60;;;25.60;99.90;;;;;;5021869;28;20026;-56
2023/04/24 12:37:46;;;;;;;5.68;2.03;;;25.70;99.90;;;;;;5015850;28;20021;-58
2023/04/24 12:40:13;;;;;;;5.88;1.58;;;25.70;99.90;;;;;;5034686;28;20501;-57
2023/04/24 12:42:44;;;;;;;5.82;1.70;;;25.70;99.90;;;;;;5028685;28;20041;-59
2023/04/24 12:45:12;;;;;;;2.95;1.17;;;25.70;99.90;;;;;;5020988;28;20029;-60